createdAt,value
2023-01-30T00:04:18.542Z,19.29
2023-01-30T00:09:41.320Z,19.22
2023-01-30T00:15:03.030Z,19.17
2023-01-30T00:20:24.793Z,19.14
2023-01-30T00:25:46.810Z,19.10
2023-01-30T00:31:08.958Z,19.05
2023-01-30T00:36:30.635Z,19.02
2023-01-30T00:42:11.086Z,18.97
2023-01-30T00:52:54.320Z,18.88
2023-01-30T00:58:16.447Z,18.86
2023-01-30T01:03:38.390Z,18.84
2023-01-30T01:09:00.153Z,18.81
2023-01-30T01:14:21.874Z,18.77
2023-01-30T01:19:43.620Z,18.74
2023-01-30T01:25:06.087Z,18.71
2023-01-30T01:30:27.843Z,18.68
2023-01-30T01:35:49.584Z,18.65
2023-01-30T01:41:13.426Z,18.63
2023-01-30T01:46:40.231Z,18.61
2023-01-30T01:52:05.764Z,18.59
2023-01-30T01:57:33.241Z,18.56
2023-01-30T02:02:58.897Z,18.53
2023-01-30T02:08:25.879Z,18.48
2023-01-30T02:13:48.478Z,18.48
2023-01-30T02:19:45.373Z,18.45
2023-01-30T02:25:34.264Z,18.41
2023-01-30T02:31:05.192Z,18.40
2023-01-30T02:36:40.729Z,18.37
2023-01-30T02:42:16.215Z,18.35
2023-01-30T02:47:56.199Z,18.32
2023-01-30T02:53:17.984Z,18.31
2023-01-30T02:58:47.355Z,18.29
2023-01-30T03:04:27.836Z,18.26
2023-01-30T03:09:55.240Z,18.24
2023-01-30T03:15:40.870Z,18.23
2023-01-30T03:21:06.964Z,18.20
2023-01-30T03:26:33.122Z,18.19
2023-01-30T03:31:54.930Z,18.17
2023-01-30T03:37:16.783Z,18.14
2023-01-30T03:42:38.466Z,18.13
2023-01-30T03:48:00.153Z,18.13
2023-01-30T03:53:21.850Z,18.11
2023-01-30T03:58:43.558Z,18.10
2023-01-30T04:04:05.494Z,18.09
2023-01-30T04:09:27.263Z,18.08
2023-01-30T04:14:49.095Z,18.06
2023-01-30T04:20:11.391Z,18.04
2023-01-30T04:25:33.112Z,18.03
2023-01-30T04:30:55.062Z,18.02
2023-01-30T04:36:16.879Z,18.00
2023-01-30T04:41:38.614Z,17.99
2023-01-30T04:47:00.310Z,17.97
2023-01-30T04:52:22.096Z,17.95
2023-01-30T04:57:43.790Z,17.92
2023-01-30T05:03:06.700Z,17.92
2023-01-30T05:08:28.395Z,17.90
2023-01-30T05:13:50.203Z,17.90
2023-01-30T05:19:14.017Z,17.88
2023-01-30T05:24:36.905Z,17.87
2023-01-30T05:29:58.611Z,17.84
2023-01-30T05:35:20.470Z,17.84
2023-01-30T05:40:42.790Z,17.83
2023-01-30T05:46:06.455Z,17.82
2023-01-30T05:51:28.220Z,17.80
2023-01-30T05:56:50.707Z,17.78
2023-01-30T06:02:12.447Z,17.77
2023-01-30T06:07:34.111Z,17.76
2023-01-30T06:12:55.855Z,17.78
2023-01-30T06:18:17.619Z,17.78
2023-01-30T06:23:39.300Z,17.78
2023-01-30T06:29:01.016Z,17.77
2023-01-30T06:34:22.720Z,17.77
2023-01-30T06:39:44.509Z,17.76
2023-01-30T06:45:06.941Z,17.76
2023-01-30T06:50:29.737Z,17.75
2023-01-30T06:55:51.463Z,17.76
2023-01-30T07:01:13.236Z,17.75
2023-01-30T07:06:34.954Z,17.72
2023-01-30T07:11:56.660Z,17.72
2023-01-30T07:17:18.621Z,17.69
2023-01-30T07:22:40.311Z,17.68
2023-01-30T07:28:03.720Z,17.67
2023-01-30T07:33:25.560Z,17.65
2023-01-30T07:38:49.617Z,17.65
2023-01-30T07:44:12.911Z,17.63
2023-01-30T07:49:34.672Z,17.63
2023-01-30T07:54:56.362Z,17.74
2023-01-30T08:00:18.935Z,17.94
2023-01-30T08:05:40.953Z,18.19
2023-01-30T08:11:02.679Z,18.21
2023-01-30T08:16:24.515Z,18.45
2023-01-30T08:21:46.266Z,19.03
2023-01-30T08:27:08.455Z,19.33
2023-01-30T08:32:30.194Z,19.33
2023-01-30T08:37:51.898Z,19.60
2023-01-30T08:43:13.621Z,19.14
2023-01-30T08:48:49.092Z,19.00
2023-01-30T08:54:11.800Z,19.02
2023-01-30T08:59:33.547Z,18.81
2023-01-30T09:04:55.260Z,18.60
2023-01-30T09:10:17.962Z,18.45
2023-01-30T09:15:43.205Z,18.34
2023-01-30T09:21:05.865Z,18.22
2023-01-30T09:26:27.651Z,18.15
2023-01-30T09:31:49.904Z,18.10
2023-01-30T09:37:11.632Z,18.06
2023-01-30T09:42:58.226Z,18.04
2023-01-30T09:48:53.819Z,17.98
2023-01-30T09:54:22.362Z,17.94
2023-01-30T09:59:56.947Z,17.89
2023-01-30T10:05:19.064Z,17.83
2023-01-30T10:11:12.889Z,17.80
2023-01-30T10:17:01.447Z,17.79
2023-01-30T10:22:53.549Z,17.76
2023-01-30T10:28:40.842Z,17.71
2023-01-30T10:34:10.749Z,17.65
2023-01-30T10:39:49.661Z,17.64
2023-01-30T10:45:20.613Z,17.57
2023-01-30T10:50:53.679Z,17.52
2023-01-30T10:56:37.335Z,17.52
2023-01-30T11:02:13.392Z,17.50
2023-01-30T11:07:35.155Z,17.47
2023-01-30T11:13:10.875Z,17.47
2023-01-30T11:19:17.633Z,17.46
2023-01-30T11:24:19.631Z,17.44
2023-01-30T11:29:41.340Z,17.40
2023-01-30T11:35:09.120Z,17.41
2023-01-30T11:40:31.831Z,17.40
2023-01-30T11:45:53.555Z,17.51
2023-01-30T11:51:16.851Z,17.67
2023-01-30T11:56:49.066Z,17.82
2023-01-30T12:02:13.563Z,17.96
2023-01-30T12:07:37.683Z,18.03
2023-01-30T12:13:06.852Z,18.06
2023-01-30T12:18:46.338Z,18.07
2023-01-30T12:24:26.020Z,18.04
2023-01-30T12:29:53.751Z,17.97
2023-01-30T12:35:24.963Z,17.92
2023-01-30T12:41:28.217Z,17.85
2023-01-30T12:47:07.950Z,17.79
2023-01-30T12:53:02.735Z,17.77
2023-01-30T12:58:35.175Z,17.71
2023-01-30T13:04:22.079Z,17.68
2023-01-30T13:10:02.158Z,17.58
2023-01-30T13:15:27.079Z,17.58
2023-01-30T13:21:20.483Z,17.57
2023-01-30T13:26:44.257Z,17.51
2023-01-30T13:32:15.248Z,17.51
2023-01-30T13:37:38.264Z,17.49
2023-01-30T13:43:07.409Z,17.48
2023-01-30T13:49:00.434Z,17.44
2023-01-30T13:54:22.099Z,17.37
2023-01-30T14:00:05.231Z,17.37
2023-01-30T14:05:51.949Z,17.38
2023-01-30T14:11:48.182Z,17.38
2023-01-30T14:17:14.376Z,17.35
2023-01-30T14:22:53.375Z,17.34
2023-01-30T14:28:18.052Z,17.29
2023-01-30T14:33:51.100Z,17.26
2023-01-30T14:39:38.985Z,17.22
2023-01-30T14:45:42.111Z,17.18
2023-01-30T14:51:26.319Z,17.20
2023-01-30T14:57:16.459Z,17.19
2023-01-30T15:02:44.416Z,17.19
2023-01-30T15:08:15.609Z,17.19
2023-01-30T15:13:40.428Z,17.16
2023-01-30T15:19:23.225Z,17.15
2023-01-30T15:25:09.541Z,17.35
2023-01-30T15:31:00.834Z,17.74
2023-01-30T15:36:34.455Z,18.23
2023-01-30T15:42:05.998Z,18.74
2023-01-30T15:47:42.716Z,19.04
2023-01-30T15:53:09.010Z,19.14
2023-01-30T15:58:32.927Z,19.13
2023-01-30T16:03:55.156Z,19.10
2023-01-30T16:09:22.308Z,19.02
2023-01-30T16:14:44.015Z,18.90
2023-01-30T16:20:07.866Z,18.77
2023-01-30T16:25:34.618Z,18.66
2023-01-30T16:31:08.333Z,18.58
2023-01-30T16:36:33.325Z,18.47
2023-01-30T16:41:56.833Z,18.43
2023-01-30T16:47:31.689Z,18.37
2023-01-30T16:52:55.611Z,18.27
2023-01-30T16:58:17.977Z,18.18
2023-01-30T17:03:43.695Z,18.13
2023-01-30T17:09:44.661Z,18.07
2023-01-30T17:15:12.270Z,18.04
2023-01-30T17:20:38.832Z,18.12
2023-01-30T17:26:01.212Z,18.28
2023-01-30T17:31:23.413Z,18.50
2023-01-30T17:36:46.754Z,18.75
2023-01-30T17:42:12.507Z,19.08
2023-01-30T17:47:35.907Z,19.27
2023-01-30T17:52:57.680Z,19.36
2023-01-30T17:58:19.552Z,19.38
2023-01-30T18:03:42.048Z,19.33
2023-01-30T18:09:05.205Z,19.25
2023-01-30T18:14:27.035Z,19.15
2023-01-30T18:19:48.845Z,19.04
2023-01-30T18:25:13.592Z,18.95
2023-01-30T18:30:35.385Z,18.82
2023-01-30T18:35:57.140Z,18.83
2023-01-30T18:41:22.059Z,18.89
2023-01-30T18:46:44.227Z,19.11
2023-01-30T18:52:06.022Z,19.50
2023-01-30T18:57:27.672Z,19.97
2023-01-30T19:02:53.464Z,20.39
2023-01-30T19:08:15.171Z,20.75
2023-01-30T19:13:37.598Z,21.01
2023-01-30T19:18:59.462Z,21.22
2023-01-30T19:24:21.370Z,21.40
2023-01-30T19:29:43.604Z,21.52
2023-01-30T19:35:05.864Z,21.57
2023-01-30T19:40:27.622Z,21.50
2023-01-30T19:45:59.564Z,21.37
2023-01-30T19:51:29.698Z,21.18
2023-01-30T19:56:52.012Z,20.94
2023-01-30T20:02:13.778Z,20.75
2023-01-30T20:07:37.360Z,20.56
2023-01-30T20:12:59.175Z,20.40
2023-01-30T20:18:20.910Z,20.26
2023-01-30T20:23:45.050Z,20.11
2023-01-30T20:29:08.608Z,19.99
2023-01-30T20:34:30.271Z,19.90
2023-01-30T20:39:52.529Z,19.82
2023-01-30T20:45:14.293Z,19.76
2023-01-30T20:50:36.101Z,19.81
2023-01-30T20:55:59.093Z,19.97
2023-01-30T21:01:23.131Z,20.18
2023-01-30T21:06:47.002Z,20.37
2023-01-30T21:12:09.049Z,20.51
2023-01-30T21:17:30.945Z,20.59
2023-01-30T21:22:53.126Z,20.63
2023-01-30T21:28:14.868Z,20.65
2023-01-30T21:33:36.712Z,20.68
2023-01-30T21:39:17.366Z,20.68
2023-01-30T21:44:39.299Z,20.61
2023-01-30T21:50:01.046Z,20.50
2023-01-30T21:55:22.864Z,20.40
2023-01-30T22:00:44.739Z,20.31
2023-01-30T22:06:10.866Z,20.17
2023-01-30T22:11:35.077Z,20.04
2023-01-30T22:16:56.818Z,19.92
2023-01-30T22:22:18.646Z,19.81
2023-01-30T22:27:40.336Z,19.72
2023-01-30T22:33:02.045Z,19.63
2023-01-30T22:38:24.471Z,19.55
2023-01-30T22:43:48.904Z,19.48
2023-01-30T22:49:10.901Z,19.40
2023-01-30T22:54:32.621Z,19.31
2023-01-30T22:59:54.378Z,19.21
2023-01-30T23:05:16.260Z,19.14
2023-01-30T23:10:41.114Z,19.07
2023-01-30T23:16:05.305Z,19.01
2023-01-30T23:21:30.216Z,18.94
2023-01-30T23:26:52.043Z,18.87
2023-01-30T23:32:15.187Z,18.84
2023-01-30T23:37:55.198Z,18.79
2023-01-30T23:43:17.283Z,18.73
2023-01-30T23:48:39.812Z,18.70
2023-01-30T23:54:02.265Z,18.65
2023-01-30T23:59:24.014Z,18.61
